createdAt,value
2019-01-13T00:00:23.935Z,10.03
2019-01-13T00:05:16.933Z,11.10
2019-01-13T00:10:09.948Z,10.93
2019-01-13T00:15:04.211Z,10.63
2019-01-13T00:19:57.153Z,11.40
2019-01-13T00:24:50.231Z,10.30
2019-01-13T00:29:43.147Z,11.03
2019-01-13T00:34:35.982Z,10.40
2019-01-13T00:39:28.879Z,11.13
2019-01-13T00:44:21.805Z,11.03
2019-01-13T00:49:14.793Z,10.33
2019-01-13T00:54:07.758Z,10.43
2019-01-13T00:59:00.648Z,10.47
2019-01-13T01:03:54.147Z,10.80
2019-01-13T01:08:47.165Z,10.87
2019-01-13T01:13:40.041Z,10.13
2019-01-13T01:18:33.040Z,10.10
2019-01-13T01:23:26.010Z,10.23
2019-01-13T01:28:18.952Z,9.50
2019-01-13T01:33:11.811Z,9.97
2019-01-13T01:38:04.698Z,10.20
2019-01-13T01:42:57.632Z,10.07
2019-01-13T01:47:50.509Z,9.27
2019-01-13T01:52:43.423Z,8.80
2019-01-13T01:57:36.291Z,8.87
2019-01-13T02:02:29.207Z,10.60
2019-01-13T02:07:22.088Z,10.00
2019-01-13T02:12:15.101Z,9.50
2019-01-13T02:17:07.976Z,9.27
2019-01-13T02:22:01.332Z,8.63
2019-01-13T02:26:54.208Z,8.37
2019-01-13T02:31:47.340Z,8.67
2019-01-13T02:36:40.252Z,7.93
2019-01-13T02:41:33.133Z,8.67
2019-01-13T02:46:26.018Z,9.17
2019-01-13T02:51:18.942Z,8.03
2019-01-13T02:56:11.838Z,8.00
2019-01-13T03:01:04.905Z,8.03
2019-01-13T03:05:57.796Z,7.30
2019-01-13T03:10:50.643Z,6.27
2019-01-13T03:15:43.552Z,6.23
2019-01-13T03:20:36.500Z,6.17
2019-01-13T03:25:29.681Z,5.30
2019-01-13T03:30:24.053Z,5.63
2019-01-13T03:35:17.223Z,5.03
2019-01-13T03:40:14.692Z,4.73
2019-01-13T03:45:09.033Z,4.33
2019-01-13T03:50:02.092Z,4.70
2019-01-13T03:54:55.068Z,4.73
2019-01-13T03:59:48.891Z,5.23
2019-01-13T04:04:41.735Z,4.90
2019-01-13T04:09:34.606Z,5.27
2019-01-13T04:14:29.229Z,4.90
2019-01-13T04:19:22.253Z,4.67
2019-01-13T04:24:16.352Z,4.50
2019-01-13T04:29:09.240Z,4.77
2019-01-13T04:34:02.154Z,4.30
2019-01-13T04:38:55.052Z,4.30
2019-01-13T04:43:47.931Z,3.90
2019-01-13T04:48:40.935Z,4.40
2019-01-13T04:53:33.805Z,4.63
2019-01-13T04:58:26.672Z,4.20
2019-01-13T05:03:19.538Z,4.13
2019-01-13T05:08:12.535Z,4.37
2019-01-13T05:13:05.437Z,4.43
2019-01-13T05:17:58.293Z,4.63
2019-01-13T05:22:51.199Z,4.27
2019-01-13T05:27:44.104Z,4.40
2019-01-13T05:32:36.982Z,4.23
2019-01-13T05:37:29.862Z,4.20
2019-01-13T05:42:22.702Z,4.00
2019-01-13T05:47:15.551Z,3.83
2019-01-13T05:52:08.412Z,4.00
2019-01-13T05:57:01.320Z,4.27
2019-01-13T06:01:54.328Z,4.57
2019-01-13T06:06:49.033Z,3.83
2019-01-13T06:11:41.924Z,4.40
2019-01-13T06:16:34.788Z,5.00
2019-01-13T06:21:27.732Z,4.90
2019-01-13T06:26:20.592Z,5.00
2019-01-13T06:31:13.529Z,4.27
2019-01-13T06:36:06.399Z,4.57
2019-01-13T06:40:59.325Z,4.70
2019-01-13T06:45:52.179Z,4.70
2019-01-13T06:50:45.064Z,4.23
2019-01-13T06:55:37.928Z,4.10
2019-01-13T07:00:31.973Z,3.63
2019-01-13T07:05:25.129Z,3.27
2019-01-13T07:10:18.462Z,3.70
2019-01-13T07:15:14.270Z,3.20
2019-01-13T07:20:10.532Z,3.00
2019-01-13T07:25:06.198Z,3.23
2019-01-13T07:29:59.071Z,3.10
2019-01-13T07:34:51.962Z,2.43
2019-01-13T07:39:44.900Z,2.70
2019-01-13T07:44:37.793Z,2.70
2019-01-13T07:49:30.691Z,2.30
2019-01-13T07:54:23.678Z,2.43
2019-01-13T07:59:16.553Z,2.33
2019-01-13T08:04:09.507Z,2.60
2019-01-13T08:09:04.173Z,2.50
2019-01-13T08:13:57.090Z,2.67
2019-01-13T08:18:50.267Z,2.77
2019-01-13T08:23:43.201Z,3.13
2019-01-13T08:28:36.092Z,2.60
2019-01-13T08:33:28.959Z,2.67
2019-01-13T08:38:21.920Z,2.67
2019-01-13T08:43:15.066Z,2.60
2019-01-13T08:48:08.047Z,2.67
2019-01-13T08:53:01.012Z,2.57
2019-01-13T08:57:53.945Z,3.10
2019-01-13T09:02:46.812Z,2.70
2019-01-13T09:07:39.774Z,3.47
2019-01-13T09:12:32.789Z,3.37
2019-01-13T09:17:25.803Z,4.00
2019-01-13T09:22:18.656Z,4.00
2019-01-13T09:27:11.568Z,4.60
2019-01-13T09:32:04.560Z,4.33
2019-01-13T09:36:57.529Z,5.07
2019-01-13T09:41:50.452Z,4.83
2019-01-13T09:46:43.337Z,5.50
2019-01-13T09:51:36.257Z,5.47
2019-01-13T09:56:29.157Z,5.83
2019-01-13T10:01:22.047Z,6.37
2019-01-13T10:06:14.940Z,6.87
2019-01-13T10:11:07.804Z,7.10
2019-01-13T10:16:00.702Z,7.20
2019-01-13T10:20:53.644Z,8.47
2019-01-13T10:25:46.540Z,8.93
2019-01-13T10:30:39.375Z,8.53
2019-01-13T10:35:32.283Z,8.53
2019-01-13T10:40:28.379Z,8.43
2019-01-13T10:45:21.449Z,8.77
2019-01-13T10:50:23.432Z,8.50
2019-01-13T10:55:16.895Z,8.90
2019-01-13T11:00:18.243Z,9.10
2019-01-13T11:05:11.263Z,8.57
2019-01-13T11:10:06.656Z,9.00
2019-01-13T11:14:59.535Z,8.60
2019-01-13T11:19:52.395Z,9.33
2019-01-13T11:24:45.436Z,9.37
2019-01-13T11:29:38.373Z,9.37
2019-01-13T11:34:31.235Z,9.77
2019-01-13T11:39:24.098Z,12.10
2019-01-13T11:44:16.998Z,8.87
2019-01-13T11:49:09.925Z,8.13
2019-01-13T11:54:02.774Z,8.83
2019-01-13T11:58:55.758Z,7.97
2019-01-13T12:03:48.638Z,7.47
2019-01-13T12:08:41.601Z,6.90
2019-01-13T12:13:34.522Z,7.20
2019-01-13T12:18:27.393Z,6.73
2019-01-13T12:23:20.446Z,6.17
2019-01-13T12:28:13.423Z,6.33
2019-01-13T12:33:06.653Z,6.10
2019-01-13T12:37:59.643Z,5.60
2019-01-13T12:42:52.582Z,6.03
2019-01-13T12:47:45.496Z,5.20
2019-01-13T12:52:38.419Z,4.90
2019-01-13T12:57:31.287Z,3.60
2019-01-13T13:02:24.544Z,4.30
2019-01-13T13:07:18.201Z,4.07
2019-01-13T13:12:12.029Z,3.50
2019-01-13T13:17:05.511Z,3.17
2019-01-13T13:21:59.062Z,2.90
2019-01-13T13:26:52.500Z,3.13
2019-01-13T13:31:45.851Z,2.67
2019-01-13T13:36:39.501Z,2.80
2019-01-13T13:41:33.023Z,1.97
2019-01-13T13:46:28.200Z,2.30
2019-01-13T13:51:21.993Z,2.60
2019-01-13T13:56:16.326Z,2.43
2019-01-13T14:01:09.489Z,2.10
2019-01-13T14:06:02.437Z,2.20
2019-01-13T14:10:55.407Z,2.17
2019-01-13T14:15:48.547Z,1.97
2019-01-13T14:20:41.471Z,2.07
2019-01-13T14:25:34.513Z,1.80
2019-01-13T14:30:27.710Z,2.13
2019-01-13T14:35:20.869Z,1.97
2019-01-13T14:40:17.202Z,2.10
2019-01-13T14:45:14.410Z,2.77
2019-01-13T14:50:11.042Z,2.10
2019-01-13T14:55:04.506Z,2.70
2019-01-13T14:59:57.495Z,2.47
2019-01-13T15:04:50.385Z,2.60
2019-01-13T15:09:46.003Z,3.07
2019-01-13T15:14:39.073Z,2.80
2019-01-13T15:19:32.287Z,2.73
2019-01-13T15:24:25.259Z,3.00
2019-01-13T15:29:18.160Z,3.33
2019-01-13T15:34:11.046Z,3.13
2019-01-13T15:39:07.621Z,3.50
2019-01-13T15:44:00.457Z,3.73
2019-01-13T15:48:53.413Z,4.00
2019-01-13T15:53:46.329Z,3.80
2019-01-13T15:58:39.223Z,4.27
2019-01-13T16:03:32.104Z,5.23
2019-01-13T16:08:25.032Z,6.10
2019-01-13T16:13:19.243Z,5.80
2019-01-13T16:18:12.115Z,6.93
2019-01-13T16:23:05.837Z,7.10
2019-01-13T16:27:58.877Z,6.97
2019-01-13T16:32:51.787Z,5.70
2019-01-13T16:37:44.688Z,5.50
2019-01-13T16:42:37.610Z,5.77
2019-01-13T16:47:30.521Z,7.80
2019-01-13T16:52:23.501Z,5.20
2019-01-13T16:57:16.400Z,5.10
2019-01-13T17:02:09.498Z,5.10
2019-01-13T17:07:02.500Z,4.87
2019-01-13T17:11:55.374Z,4.53
2019-01-13T17:16:48.265Z,4.40
2019-01-13T17:21:41.206Z,4.60
2019-01-13T17:26:34.080Z,5.20
2019-01-13T17:31:27.192Z,4.57
2019-01-13T17:36:20.101Z,5.30
2019-01-13T17:41:14.155Z,4.80
2019-01-13T17:46:07.181Z,4.67
2019-01-13T17:51:00.560Z,5.10
2019-01-13T17:55:53.639Z,5.17
2019-01-13T18:00:58.669Z,4.30
2019-01-13T18:05:51.763Z,4.97
2019-01-13T18:10:44.628Z,4.63
2019-01-13T18:15:37.532Z,3.70
2019-01-13T18:20:30.477Z,2.90
2019-01-13T18:25:23.438Z,2.90
2019-01-13T18:30:20.292Z,2.53
2019-01-13T18:35:15.448Z,3.17
2019-01-13T18:40:12.020Z,3.27
2019-01-13T18:45:09.561Z,4.53
2019-01-13T18:50:03.691Z,3.97
2019-01-13T18:54:56.624Z,4.00
2019-01-13T18:59:49.538Z,4.07
2019-01-13T19:04:44.281Z,3.87
2019-01-13T19:09:37.252Z,4.00
2019-01-13T19:14:47.942Z,2.87
2019-01-13T19:20:06.977Z,3.27
2019-01-13T19:25:14.913Z,3.03
2019-01-13T19:30:11.216Z,2.90
2019-01-13T19:35:06.466Z,3.10
2019-01-13T19:39:59.413Z,3.57
2019-01-13T19:44:52.251Z,1.80
2019-01-13T19:49:45.145Z,1.20
2019-01-13T19:54:39.346Z,1.47
2019-01-13T19:59:36.630Z,1.43
2019-01-13T20:04:32.441Z,1.40
2019-01-13T20:09:25.388Z,1.63
2019-01-13T20:14:18.310Z,1.77
2019-01-13T20:19:11.603Z,2.03
2019-01-13T20:24:04.797Z,1.87
2019-01-13T20:28:57.735Z,2.13
2019-01-13T20:33:50.735Z,2.07
2019-01-13T20:38:43.673Z,1.83
2019-01-13T20:43:37.926Z,2.43
2019-01-13T20:48:31.092Z,2.37
2019-01-13T20:53:24.116Z,3.10
2019-01-13T20:58:17.032Z,2.90
2019-01-13T21:03:11.741Z,3.03
2019-01-13T21:08:04.732Z,3.57
2019-01-13T21:12:57.726Z,2.93
2019-01-13T21:17:57.216Z,3.30
2019-01-13T21:22:45.569Z,2.60
2019-01-13T21:27:38.981Z,3.23
2019-01-13T21:32:31.982Z,3.50
2019-01-13T21:37:25.701Z,2.63
2019-01-13T21:42:18.640Z,5.27
2019-01-13T21:47:11.676Z,2.47
2019-01-13T21:52:04.798Z,2.93
2019-01-13T21:56:57.694Z,3.40
2019-01-13T22:01:50.579Z,3.03
2019-01-13T22:06:43.720Z,2.60
2019-01-13T22:11:36.706Z,3.40
2019-01-13T22:16:29.604Z,3.17
2019-01-13T22:21:22.484Z,2.73
2019-01-13T22:26:15.600Z,3.07
2019-01-13T22:31:09.712Z,3.50
2019-01-13T22:36:02.638Z,2.20
2019-01-13T22:40:55.519Z,3.50
2019-01-13T22:45:48.482Z,13.47
2019-01-13T22:50:41.423Z,3.07
2019-01-13T22:55:34.292Z,3.13
2019-01-13T23:01:01.805Z,3.00
2019-01-13T23:05:55.705Z,2.10
2019-01-13T23:10:52.684Z,2.33
2019-01-13T23:15:45.896Z,1.70
2019-01-13T23:20:38.814Z,1.80
2019-01-13T23:25:31.762Z,2.00
2019-01-13T23:30:24.607Z,2.13
2019-01-13T23:35:17.461Z,2.83
2019-01-13T23:40:10.503Z,2.40
2019-01-13T23:45:04.421Z,2.67
2019-01-13T23:49:58.387Z,2.90
2019-01-13T23:54:51.238Z,2.90
2019-01-13T23:59:44.140Z,3.60
